Time;durP1;ratioP1;P1;durP2;ratioP2;P2;SDS_P1;SDS_P2;PMS_P1;PMS_P2;Temp;Humidity;BMP_temperature;BMP_pressure;BME280_temperature;BME280_humidity;BME280_pressure;Samples;Min_cycle;Max_cycle;Signal;HPM_P1;HPM_P2
2021/12/18 00:00:43;;;;;;;7.87;5.93;;;3.90;95.80;;;;;;977026;146;27309;-73
2021/12/18 00:03:09;;;;;;;7.00;6.00;;;3.90;95.80;;;;;;969637;146;27293;-74
2021/12/18 00:05:36;;;;;;;7.67;6.00;;;3.90;95.90;;;;;;978103;146;27588;-73
2021/12/18 00:08:03;;;;;;;7.53;6.17;;;3.90;95.90;;;;;;974632;146;27768;-74
2021/12/18 00:10:29;;;;;;;14.70;9.33;;;3.90;96.00;;;;;;972747;146;27315;-74
2021/12/18 00:12:56;;;;;;;16.77;10.43;;;3.90;96.00;;;;;;966186;147;27301;-73
2021/12/18 00:15:25;;;;;;;16.80;10.57;;;3.90;96.10;;;;;;966869;147;27427;-73
2021/12/18 00:17:52;;;;;;;12.50;8.77;;;3.90;96.00;;;;;;973806;147;27290;-73
2021/12/18 00:20:18;;;;;;;25.33;10.43;;;3.90;96.00;;;;;;967647;147;27763;-73
2021/12/18 00:22:45;;;;;;;18.63;8.47;;;3.90;95.90;;;;;;962911;147;27264;-73
2021/12/18 00:25:11;;;;;;;29.10;8.47;;;3.90;95.80;;;;;;958357;149;27419;-73
2021/12/18 00:27:38;;;;;;;38.40;10.07;;;3.90;95.80;;;;;;962573;147;27390;-73
2021/12/18 00:30:05;;;;;;;15.90;7.80;;;3.90;95.90;;;;;;962595;147;27927;-73
2021/12/18 00:32:32;;;;;;;18.83;7.73;;;3.90;96.00;;;;;;967499;146;27214;-73
2021/12/18 00:35:01;;;;;;;23.37;7.60;;;3.90;96.00;;;;;;968643;146;27269;-74
2021/12/18 00:37:27;;;;;;;19.73;7.17;;;3.90;96.10;;;;;;959087;147;27319;-73
2021/12/18 00:39:58;;;;;;;8.90;6.63;;;3.90;96.20;;;;;;958336;147;27381;-73
2021/12/18 00:42:43;;;;;;;11.13;7.40;;;3.90;96.30;;;;;;963811;147;27405;-73
2021/12/18 00:45:07;;;;;;;6.43;5.77;;;3.90;96.50;;;;;;964118;147;27357;-76
2021/12/18 00:47:34;;;;;;;8.50;6.03;;;3.90;96.50;;;;;;972486;147;27338;-74
2021/12/18 00:50:00;;;;;;;7.27;6.30;;;4.00;96.60;;;;;;972769;147;27378;-74
2021/12/18 00:52:27;;;;;;;7.77;6.20;;;4.00;97.00;;;;;;960204;147;27791;-74
2021/12/18 00:54:54;;;;;;;8.00;6.13;;;4.10;96.80;;;;;;967959;147;27673;-75
2021/12/18 00:57:20;;;;;;;12.07;7.23;;;4.10;96.80;;;;;;968257;146;27285;-75
2021/12/18 00:59:48;;;;;;;20.17;7.50;;;4.20;96.80;;;;;;966313;147;27319;-74
2021/12/18 01:02:14;;;;;;;8.53;6.20;;;4.20;96.70;;;;;;958390;149;27325;-74
2021/12/18 01:04:40;;;;;;;19.00;6.73;;;4.30;96.80;;;;;;958987;147;27217;-74
2021/12/18 01:07:06;;;;;;;18.03;7.57;;;4.30;96.70;;;;;;965827;147;27297;-74
2021/12/18 01:09:58;;;;;;;16.80;7.13;;;4.40;96.90;;;;;;958282;147;27337;-74
2021/12/18 01:12:11;;;;;;;33.13;8.40;;;4.40;96.80;;;;;;960974;147;27328;-74
2021/12/18 01:22:47;;;;;;;22.47;7.73;;;4.60;97.00;;;;;;970610;146;27288;-74
2021/12/18 01:25:09;;;;;;;12.93;6.77;;;4.70;97.10;;;;;;967690;146;27395;-74
2021/12/18 01:27:36;;;;;;;25.37;7.83;;;4.70;97.00;;;;;;956113;148;27290;-74
2021/12/18 01:30:02;;;;;;;17.03;7.80;;;4.80;97.10;;;;;;952038;150;27343;-74
2021/12/18 01:32:30;;;;;;;21.27;7.47;;;4.80;97.10;;;;;;976292;145;27381;-74
2021/12/18 01:34:55;;;;;;;23.57;7.07;;;4.80;97.20;;;;;;975207;146;27728;-75
2021/12/18 01:37:22;;;;;;;19.20;7.53;;;4.90;97.30;;;;;;973170;146;28540;-74
2021/12/18 01:39:52;;;;;;;20.90;6.93;;;5.00;97.40;;;;;;972880;146;27290;-74
2021/12/18 01:52:58;;;;;;;12.67;6.47;;;5.20;97.00;;;;;;967306;146;27329;-74
2021/12/18 01:55:25;;;;;;;11.10;6.77;;;5.20;96.80;;;;;;971486;146;27339;-74
2021/12/18 01:57:51;;;;;;;14.13;7.00;;;5.20;96.70;;;;;;960788;148;27266;-74
2021/12/18 02:00:18;;;;;;;18.63;7.27;;;5.20;96.70;;;;;;982918;146;27396;-74
2021/12/18 02:02:44;;;;;;;20.70;7.13;;;5.20;96.70;;;;;;977109;146;27605;-74
2021/12/18 02:05:11;;;;;;;13.87;7.10;;;5.30;96.70;;;;;;977625;146;27338;-74
2021/12/18 02:07:40;;;;;;;11.63;6.73;;;5.30;96.70;;;;;;961982;148;27353;-74
2021/12/18 02:10:11;;;;;;;9.87;6.73;;;5.30;96.60;;;;;;944109;148;27307;-74
2021/12/18 02:12:44;;;;;;;16.33;7.47;;;5.30;96.60;;;;;;965145;146;27326;-74
2021/12/18 02:20:38;;;;;;;12.87;7.00;;;5.40;96.70;;;;;;963498;147;27827;-73
2021/12/18 02:22:47;;;;;;;15.90;7.63;;;5.40;96.70;;;;;;965056;147;27325;-73
2021/12/18 02:25:13;;;;;;;17.87;8.07;;;5.40;96.70;;;;;;963246;147;27313;-73
2021/12/18 02:27:40;;;;;;;31.23;9.07;;;5.40;96.30;;;;;;973211;146;27359;-73
2021/12/18 02:30:08;;;;;;;30.47;9.60;;;5.40;96.40;;;;;;966518;147;27316;-73
2021/12/18 02:32:36;;;;;;;23.00;9.00;;;5.40;96.30;;;;;;976312;144;27218;-74
2021/12/18 02:35:05;;;;;;;21.17;8.33;;;5.40;96.30;;;;;;964852;146;27254;-73
2021/12/18 02:37:31;;;;;;;12.50;7.23;;;5.40;96.40;;;;;;967278;147;27899;-73
2021/12/18 02:42:23;;;;;;;16.47;8.10;;;5.30;96.60;;;;;;967348;147;27258;-73
2021/12/18 02:44:49;;;;;;;16.23;7.70;;;5.30;96.60;;;;;;958603;147;27237;-74
2021/12/18 02:47:18;;;;;;;18.77;8.20;;;5.30;96.80;;;;;;959552;147;27390;-73
2021/12/18 02:49:45;;;;;;;26.53;8.10;;;5.30;96.80;;;;;;967702;147;27261;-74
2021/12/18 02:52:12;;;;;;;24.07;8.27;;;5.30;96.80;;;;;;960912;147;27403;-73
2021/12/18 02:54:41;;;;;;;21.13;9.03;;;5.30;96.80;;;;;;962214;147;27270;-73
2021/12/18 02:57:08;;;;;;;23.07;8.60;;;5.30;96.80;;;;;;961450;146;27295;-73
2021/12/18 02:59:43;;;;;;;18.53;8.40;;;5.30;96.80;;;;;;967676;147;27838;-73
2021/12/18 03:02:10;;;;;;;26.63;10.27;;;5.30;96.80;;;;;;966793;147;27361;-73
2021/12/18 03:04:38;;;;;;;35.20;10.47;;;5.30;96.80;;;;;;968153;147;27280;-73
2021/12/18 03:07:05;;;;;;;29.17;9.70;;;5.30;96.90;;;;;;949343;149;27302;-74
2021/12/18 03:25:39;;;;;;;21.63;8.47;;;5.20;97.10;;;;;;962827;147;27280;-75
2021/12/18 03:28:07;;;;;;;18.73;7.90;;;5.20;97.10;;;;;;975605;146;27370;-75
2021/12/18 03:30:32;;;;;;;31.53;10.03;;;5.20;97.20;;;;;;966721;146;27250;-75
2021/12/18 03:32:59;;;;;;;21.40;8.57;;;5.20;97.20;;;;;;963078;146;27292;-74
2021/12/18 03:35:25;;;;;;;18.67;8.30;;;5.20;97.20;;;;;;964527;147;27323;-74
2021/12/18 03:37:52;;;;;;;20.03;8.27;;;5.20;97.30;;;;;;962424;147;27394;-74
2021/12/18 03:40:19;;;;;;;15.70;6.73;;;5.20;97.30;;;;;;971946;147;27324;-75
2021/12/18 03:42:48;;;;;;;16.67;6.87;;;5.20;97.30;;;;;;965216;147;27234;-74
2021/12/18 03:45:15;;;;;;;15.73;6.87;;;5.20;97.20;;;;;;969505;147;27374;-75
2021/12/18 03:47:41;;;;;;;15.10;7.10;;;5.20;97.20;;;;;;950345;149;27241;-74
2021/12/18 03:50:08;;;;;;;16.00;7.47;;;5.20;97.30;;;;;;953534;147;27423;-75
2021/12/18 03:52:35;;;;;;;11.00;5.80;;;5.20;97.30;;;;;;941011;151;27338;-76
2021/12/18 03:55:01;;;;;;;18.50;6.67;;;5.30;97.40;;;;;;968051;147;27278;-74
2021/12/18 03:57:28;;;;;;;16.73;7.43;;;5.30;97.40;;;;;;958243;149;27323;-74
2021/12/18 03:59:54;;;;;;;17.83;7.40;;;5.30;97.40;;;;;;948934;149;27325;-74
2021/12/18 04:02:21;;;;;;;24.97;7.90;;;5.30;97.30;;;;;;938987;151;27419;-74
2021/12/18 04:04:50;;;;;;;12.07;6.97;;;5.30;97.30;;;;;;937330;151;27341;-75
2021/12/18 04:07:17;;;;;;;10.10;6.37;;;5.30;97.30;;;;;;957906;147;27881;-75
2021/12/18 04:09:43;;;;;;;8.10;5.77;;;5.30;97.40;;;;;;960229;147;27297;-74
2021/12/18 04:12:10;;;;;;;9.03;5.77;;;5.40;97.50;;;;;;964950;147;27291;-75
2021/12/18 04:14:36;;;;;;;9.43;5.90;;;5.40;97.50;;;;;;967505;146;27356;-74
2021/12/18 04:17:03;;;;;;;17.87;6.93;;;5.40;97.50;;;;;;966160;146;27440;-75
2021/12/18 04:19:30;;;;;;;11.67;6.93;;;5.40;97.50;;;;;;964669;147;27321;-75
2021/12/18 04:21:56;;;;;;;10.83;5.87;;;5.40;97.50;;;;;;951616;147;27328;-75
2021/12/18 04:24:23;;;;;;;11.03;6.23;;;5.40;97.40;;;;;;949512;147;27284;-74
2021/12/18 04:26:49;;;;;;;12.13;6.23;;;5.50;97.40;;;;;;944979;151;27388;-74
2021/12/18 04:29:16;;;;;;;8.30;6.57;;;5.50;97.50;;;;;;970122;147;27362;-75
2021/12/18 04:31:42;;;;;;;9.70;6.30;;;5.50;97.60;;;;;;965589;147;27240;-74
2021/12/18 04:34:09;;;;;;;8.13;6.50;;;5.50;97.50;;;;;;953896;149;27355;-75
2021/12/18 04:36:36;;;;;;;10.20;6.23;;;5.50;97.50;;;;;;960424;149;27383;-74
2021/12/18 04:39:02;;;;;;;8.90;6.30;;;5.60;97.50;;;;;;959315;149;27299;-74
2021/12/18 04:41:38;;;;;;;7.20;5.97;;;5.60;97.70;;;;;;956456;147;28184;-75
2021/12/18 04:44:01;;;;;;;7.57;6.03;;;5.60;97.50;;;;;;956850;147;27399;-74
2021/12/18 04:46:27;;;;;;;7.23;5.83;;;5.70;97.50;;;;;;972124;147;27223;-74
2021/12/18 04:48:54;;;;;;;6.43;5.40;;;5.70;97.40;;;;;;957899;147;27394;-74
2021/12/18 04:51:21;;;;;;;9.33;7.17;;;5.70;97.40;;;;;;957276;147;27422;-74
2021/12/18 04:53:47;;;;;;;8.40;6.37;;;5.70;97.40;;;;;;944073;152;27321;-74
2021/12/18 04:56:14;;;;;;;9.43;6.83;;;5.70;97.30;;;;;;951112;147;27321;-74
2021/12/18 04:58:40;;;;;;;9.07;7.20;;;5.80;97.40;;;;;;970018;147;27405;-74
2021/12/18 05:01:10;;;;;;;8.33;6.53;;;5.80;97.50;;;;;;960575;149;27864;-74
2021/12/18 05:03:39;;;;;;;9.03;6.47;;;5.80;97.50;;;;;;957474;147;27424;-74
2021/12/18 05:06:03;;;;;;;9.17;6.33;;;5.80;97.60;;;;;;962339;147;27254;-74
2021/12/18 05:08:30;;;;;;;8.43;6.80;;;5.90;97.60;;;;;;969763;147;27364;-73
2021/12/18 05:10:56;;;;;;;9.50;6.63;;;5.90;97.60;;;;;;972666;147;27263;-74
2021/12/18 05:13:23;;;;;;;8.03;6.30;;;5.90;97.60;;;;;;958565;149;27295;-74
2021/12/18 05:15:49;;;;;;;11.53;7.53;;;6.00;97.60;;;;;;966776;147;27369;-74
2021/12/18 05:18:16;;;;;;;9.33;7.17;;;6.00;97.50;;;;;;973254;145;27317;-74
2021/12/18 05:20:43;;;;;;;10.40;7.10;;;6.00;97.40;;;;;;976592;145;27218;-74
2021/12/18 05:23:09;;;;;;;11.30;7.20;;;6.10;97.60;;;;;;977890;145;27392;-74
2021/12/18 05:25:36;;;;;;;10.97;7.50;;;6.10;97.30;;;;;;976273;145;27331;-73
2021/12/18 05:28:02;;;;;;;9.30;7.50;;;6.10;97.30;;;;;;971235;145;27359;-73
2021/12/18 05:30:29;;;;;;;11.97;7.97;;;6.10;97.30;;;;;;973649;145;27330;-74
2021/12/18 05:32:55;;;;;;;10.67;7.27;;;6.10;97.30;;;;;;982512;145;27374;-73
2021/12/18 05:35:22;;;;;;;10.87;7.87;;;6.20;97.30;;;;;;980667;145;27301;-73
2021/12/18 05:37:51;;;;;;;10.03;7.27;;;6.20;97.20;;;;;;975536;145;27271;-73
2021/12/18 05:40:21;;;;;;;11.73;7.93;;;6.20;97.60;;;;;;978581;145;27261;-73
2021/12/18 05:42:48;;;;;;;11.00;7.77;;;6.20;97.10;;;;;;988933;145;27271;-73
2021/12/18 05:45:14;;;;;;;10.63;7.83;;;6.20;97.00;;;;;;975447;147;27345;-73
2021/12/18 05:47:43;;;;;;;12.20;8.60;;;6.30;97.00;;;;;;976050;147;27304;-73
2021/12/18 05:50:08;;;;;;;9.93;8.00;;;6.30;96.90;;;;;;967764;147;27266;-73
2021/12/18 05:52:34;;;;;;;10.73;8.03;;;6.30;96.90;;;;;;974203;147;27387;-73
2021/12/18 05:55:01;;;;;;;10.40;8.07;;;6.30;96.80;;;;;;970819;147;27297;-73
2021/12/18 05:57:27;;;;;;;10.90;7.60;;;6.30;96.80;;;;;;976377;147;27435;-73
2021/12/18 05:59:54;;;;;;;12.07;8.80;;;6.30;96.80;;;;;;965374;147;27430;-73
2021/12/18 06:02:21;;;;;;;12.27;8.47;;;6.30;96.80;;;;;;974896;144;27274;-73
2021/12/18 06:04:47;;;;;;;10.63;8.57;;;6.30;96.70;;;;;;976133;147;27421;-73
2021/12/18 06:08:01;;;;;;;10.30;8.13;;;6.40;96.70;;;;;;969877;147;27241;-73
2021/12/18 06:09:40;;;;;;;9.77;7.03;;;6.40;96.70;;;;;;948102;147;27332;-73
2021/12/18 06:12:07;;;;;;;8.47;7.23;;;6.40;96.70;;;;;;971239;144;27381;-73
2021/12/18 06:14:34;;;;;;;8.30;6.53;;;6.40;96.70;;;;;;981126;144;27278;-73
2021/12/18 06:17:00;;;;;;;8.40;7.17;;;6.40;96.70;;;;;;975035;145;27241;-74
2021/12/18 06:19:29;;;;;;;9.67;6.67;;;6.40;96.70;;;;;;965037;147;27595;-73
2021/12/18 06:21:56;;;;;;;9.00;7.33;;;6.50;96.70;;;;;;972530;146;27282;-73
2021/12/18 06:24:22;;;;;;;9.50;6.67;;;6.50;96.70;;;;;;972632;147;27390;-73
2021/12/18 06:26:49;;;;;;;9.10;7.20;;;6.40;96.60;;;;;;965256;147;27276;-73
2021/12/18 06:29:16;;;;;;;8.03;6.17;;;6.50;96.60;;;;;;963030;145;27257;-73
2021/12/18 06:31:42;;;;;;;9.10;7.03;;;6.50;96.60;;;;;;962986;148;27374;-73
2021/12/18 06:34:09;;;;;;;9.23;6.80;;;6.50;96.60;;;;;;969479;147;27237;-73
2021/12/18 06:36:35;;;;;;;9.57;7.00;;;6.50;96.50;;;;;;963894;147;27245;-73
2021/12/18 06:39:02;;;;;;;7.90;6.20;;;6.50;96.50;;;;;;962352;147;27960;-73
2021/12/18 06:41:29;;;;;;;8.10;6.20;;;6.50;96.50;;;;;;971372;147;27268;-73
2021/12/18 06:43:58;;;;;;;9.57;7.10;;;6.50;96.40;;;;;;976554;146;27256;-73
2021/12/18 06:46:24;;;;;;;7.80;6.10;;;6.60;96.40;;;;;;969752;147;27270;-73
2021/12/18 06:48:51;;;;;;;9.53;6.10;;;6.50;96.80;;;;;;959373;147;27368;-73
2021/12/18 06:51:18;;;;;;;8.93;6.97;;;6.60;96.50;;;;;;959499;147;27312;-74
2021/12/18 06:53:44;;;;;;;10.37;7.33;;;6.50;96.50;;;;;;957114;147;27339;-74
2021/12/18 06:56:11;;;;;;;8.73;7.00;;;6.60;96.50;;;;;;959596;147;27424;-73
2021/12/18 06:58:37;;;;;;;8.23;6.23;;;6.60;96.40;;;;;;968232;147;27286;-73
2021/12/18 07:01:04;;;;;;;9.07;6.83;;;6.60;96.40;;;;;;970542;147;27366;-73
2021/12/18 07:03:30;;;;;;;8.90;6.87;;;6.60;96.50;;;;;;972311;147;27840;-73
2021/12/18 07:05:57;;;;;;;9.77;6.93;;;6.60;96.50;;;;;;963120;147;27304;-73
2021/12/18 07:08:24;;;;;;;9.50;7.43;;;6.60;96.50;;;;;;965434;148;27316;-73
2021/12/18 07:10:50;;;;;;;9.97;7.47;;;6.60;96.50;;;;;;969475;147;27386;-73
2021/12/18 07:13:17;;;;;;;7.87;7.03;;;6.60;96.40;;;;;;971758;147;27288;-73
2021/12/18 07:15:43;;;;;;;8.83;6.83;;;6.60;96.40;;;;;;967402;147;27332;-73
2021/12/18 07:18:10;;;;;;;9.43;6.60;;;6.70;96.40;;;;;;964812;147;27363;-73
2021/12/18 07:20:37;;;;;;;7.60;6.77;;;6.70;96.30;;;;;;966953;147;27242;-74
2021/12/18 07:23:03;;;;;;;10.37;7.50;;;6.70;96.20;;;;;;963176;147;27294;-73
2021/12/18 07:25:30;;;;;;;7.17;6.10;;;6.70;96.20;;;;;;963864;147;27422;-73
2021/12/18 07:27:59;;;;;;;8.17;7.30;;;6.70;96.20;;;;;;963451;144;27730;-73
2021/12/18 07:30:25;;;;;;;7.50;6.53;;;6.60;96.20;;;;;;961701;146;27406;-73
2021/12/18 07:32:52;;;;;;;9.07;7.63;;;6.60;96.20;;;;;;961994;147;27261;-73
2021/12/18 07:35:19;;;;;;;8.53;7.47;;;6.70;96.20;;;;;;962069;147;27415;-74
2021/12/18 07:37:45;;;;;;;8.27;6.73;;;6.70;96.40;;;;;;970393;147;27842;-74
2021/12/18 07:40:12;;;;;;;10.43;7.33;;;6.70;96.50;;;;;;961793;147;27302;-74
2021/12/18 07:42:38;;;;;;;7.70;6.50;;;6.70;96.60;;;;;;963288;147;27329;-74
2021/12/18 07:45:05;;;;;;;8.77;6.90;;;6.70;96.70;;;;;;970413;147;27276;-73
2021/12/18 07:47:31;;;;;;;9.53;7.27;;;6.70;96.70;;;;;;964939;147;27247;-73
2021/12/18 07:49:58;;;;;;;10.73;8.03;;;6.80;96.70;;;;;;975721;147;27313;-73
2021/12/18 07:52:25;;;;;;;9.17;7.87;;;6.80;96.80;;;;;;966654;146;27367;-73
2021/12/18 07:54:51;;;;;;;10.10;7.57;;;6.80;96.70;;;;;;960641;149;27838;-74
2021/12/18 07:57:21;;;;;;;10.23;7.33;;;6.90;96.70;;;;;;969179;147;27305;-73
2021/12/18 07:59:47;;;;;;;10.10;8.60;;;6.90;96.70;;;;;;963158;147;27369;-74
2021/12/18 08:02:14;;;;;;;9.23;7.60;;;6.90;96.70;;;;;;964830;147;27808;-74
2021/12/18 08:04:41;;;;;;;10.27;8.23;;;6.90;96.70;;;;;;970555;147;27284;-74
2021/12/18 08:07:07;;;;;;;10.13;7.80;;;7.00;96.70;;;;;;960865;147;27267;-74
2021/12/18 08:09:34;;;;;;;9.33;8.00;;;7.00;96.70;;;;;;963501;147;27259;-74
2021/12/18 08:12:03;;;;;;;9.70;8.20;;;7.00;96.70;;;;;;969602;147;27270;-74
2021/12/18 08:14:32;;;;;;;10.00;8.63;;;7.10;96.70;;;;;;968678;147;27305;-73
2021/12/18 08:16:56;;;;;;;11.70;8.43;;;7.10;96.70;;;;;;973605;147;27682;-73
2021/12/18 08:19:23;;;;;;;11.73;8.67;;;7.20;96.70;;;;;;964501;146;27839;-73
2021/12/18 08:21:50;;;;;;;11.30;9.43;;;7.20;96.70;;;;;;960081;147;27818;-73
2021/12/18 08:24:16;;;;;;;13.87;9.30;;;7.20;96.70;;;;;;967018;147;27299;-73
2021/12/18 08:26:43;;;;;;;10.47;8.40;;;7.30;96.70;;;;;;975365;147;27343;-74
2021/12/18 08:29:09;;;;;;;10.23;8.40;;;7.30;96.70;;;;;;971725;146;27262;-74
2021/12/18 08:31:36;;;;;;;10.33;9.00;;;7.40;96.70;;;;;;963967;147;27243;-74
2021/12/18 08:34:02;;;;;;;11.60;8.77;;;7.40;96.70;;;;;;961228;147;27292;-74
2021/12/18 08:36:29;;;;;;;11.77;9.30;;;7.40;96.70;;;;;;965677;147;27726;-73
2021/12/18 08:38:56;;;;;;;11.00;9.17;;;7.50;96.60;;;;;;969041;147;27286;-73
2021/12/18 08:41:22;;;;;;;11.50;9.80;;;7.50;96.50;;;;;;964790;147;27275;-74
2021/12/18 08:43:49;;;;;;;12.53;9.97;;;7.50;96.40;;;;;;968064;147;27262;-73
2021/12/18 08:46:15;;;;;;;13.10;10.03;;;7.60;96.70;;;;;;965953;146;27313;-74
2021/12/18 08:48:42;;;;;;;10.97;8.47;;;7.60;96.30;;;;;;960936;148;27301;-73
2021/12/18 08:51:09;;;;;;;13.00;9.33;;;7.70;96.30;;;;;;974178;147;27227;-74
2021/12/18 08:53:35;;;;;;;11.60;9.77;;;7.70;96.30;;;;;;962001;147;27228;-73
2021/12/18 08:56:02;;;;;;;11.27;9.13;;;7.70;96.30;;;;;;969107;146;27297;-73
2021/12/18 08:58:28;;;;;;;11.17;9.07;;;7.70;96.30;;;;;;961168;147;28029;-73
2021/12/18 09:00:56;;;;;;;10.10;9.03;;;7.80;96.30;;;;;;958974;149;27392;-73
2021/12/18 09:03:22;;;;;;;11.33;9.70;;;7.80;96.30;;;;;;972544;147;27391;-73
2021/12/18 09:05:48;;;;;;;12.17;9.17;;;7.90;96.30;;;;;;963679;147;27266;-73
2021/12/18 09:08:15;;;;;;;10.47;8.80;;;7.90;96.30;;;;;;964200;147;27331;-73
2021/12/18 09:10:41;;;;;;;12.23;9.17;;;8.00;96.30;;;;;;964952;147;27261;-73
2021/12/18 09:13:11;;;;;;;10.90;9.70;;;8.00;96.40;;;;;;960474;147;27375;-73
2021/12/18 09:15:37;;;;;;;10.90;9.57;;;8.00;96.40;;;;;;969477;147;27305;-74
2021/12/18 09:18:04;;;;;;;11.67;9.80;;;8.10;96.40;;;;;;963862;147;27257;-74
2021/12/18 09:20:31;;;;;;;12.70;10.40;;;8.10;96.30;;;;;;968512;147;27379;-73
2021/12/18 09:23:00;;;;;;;13.97;9.83;;;8.10;96.30;;;;;;967286;147;27342;-74
2021/12/18 09:25:24;;;;;;;11.47;9.87;;;8.10;96.30;;;;;;977287;146;27344;-73
2021/12/18 09:27:50;;;;;;;10.00;8.80;;;8.20;96.30;;;;;;974760;143;27331;-74
2021/12/18 09:30:17;;;;;;;12.20;10.17;;;8.20;96.30;;;;;;978318;146;27300;-74
2021/12/18 09:32:46;;;;;;;12.23;10.50;;;8.30;96.40;;;;;;979997;146;27247;-73
2021/12/18 09:35:13;;;;;;;11.80;9.93;;;8.30;96.30;;;;;;974366;146;27269;-74
2021/12/18 09:37:39;;;;;;;11.70;9.80;;;8.30;96.30;;;;;;973017;146;27357;-73
2021/12/18 09:40:06;;;;;;;9.87;8.70;;;8.40;96.20;;;;;;974422;143;27280;-74
2021/12/18 09:42:33;;;;;;;9.43;8.40;;;8.40;96.10;;;;;;979560;145;27814;-73
2021/12/18 09:44:59;;;;;;;10.17;8.30;;;8.50;96.00;;;;;;974281;146;27278;-74
2021/12/18 09:47:26;;;;;;;9.07;8.03;;;8.50;96.00;;;;;;974827;146;27251;-74
2021/12/18 09:49:53;;;;;;;8.87;7.77;;;8.50;96.00;;;;;;975496;146;27372;-73
2021/12/18 09:52:19;;;;;;;10.60;8.67;;;8.60;96.00;;;;;;967576;146;27243;-73
2021/12/18 09:54:46;;;;;;;10.43;8.93;;;8.60;96.00;;;;;;966091;146;27298;-74
2021/12/18 09:57:13;;;;;;;11.33;9.60;;;8.60;96.00;;;;;;963585;148;27358;-73
2021/12/18 09:59:39;;;;;;;12.17;9.97;;;8.60;96.00;;;;;;966221;148;27826;-74
2021/12/18 10:02:05;;;;;;;11.47;9.50;;;8.60;95.90;;;;;;967985;147;27279;-74
2021/12/18 10:04:35;;;;;;;9.70;8.30;;;8.70;95.90;;;;;;958396;148;27306;-74
2021/12/18 10:07:02;;;;;;;8.83;7.93;;;8.70;95.90;;;;;;945052;151;27344;-73
2021/12/18 10:09:31;;;;;;;8.27;7.47;;;8.70;95.90;;;;;;940841;151;27377;-74
2021/12/18 10:11:57;;;;;;;9.20;8.10;;;8.80;95.80;;;;;;951008;151;27419;-74
2021/12/18 10:14:36;;;;;;;9.00;8.10;;;8.80;95.70;;;;;;953779;148;27356;-74
2021/12/18 10:17:02;;;;;;;9.17;7.83;;;8.80;95.70;;;;;;951238;150;27864;-73
2021/12/18 10:19:29;;;;;;;8.90;8.03;;;8.90;95.70;;;;;;967514;148;27302;-74
2021/12/18 10:21:59;;;;;;;8.97;8.00;;;8.90;95.60;;;;;;969255;145;27397;-74
2021/12/18 10:24:28;;;;;;;7.47;6.70;;;8.90;95.60;;;;;;964002;147;27693;-73
2021/12/18 10:26:54;;;;;;;8.57;7.77;;;9.00;95.50;;;;;;959842;149;27323;-74
2021/12/18 10:29:36;;;;;;;11.13;9.53;;;9.00;95.50;;;;;;946717;149;27312;-73
2021/12/18 10:32:11;;;;;;;12.97;9.87;;;9.00;95.30;;;;;;954144;149;27362;-74
2021/12/18 10:34:38;;;;;;;12.13;10.67;;;9.00;95.20;;;;;;958091;146;27250;-74
2021/12/18 10:37:13;;;;;;;12.50;9.73;;;9.10;95.10;;;;;;968006;147;27337;-73
2021/12/18 10:39:40;;;;;;;11.07;9.67;;;9.10;95.00;;;;;;962718;147;27262;-74
2021/12/18 10:42:21;;;;;;;11.10;8.80;;;9.10;95.00;;;;;;964441;146;27186;-73
2021/12/18 10:45:10;;;;;;;10.40;9.17;;;9.10;94.90;;;;;;961674;146;27270;-73
2021/12/18 10:47:54;;;;;;;9.77;8.77;;;9.20;94.70;;;;;;961968;147;27268;-73
2021/12/18 10:50:26;;;;;;;10.87;8.73;;;9.10;94.60;;;;;;973177;146;27239;-73
2021/12/18 10:52:53;;;;;;;9.77;8.37;;;9.10;94.60;;;;;;964403;147;27251;-73
2021/12/18 10:55:19;;;;;;;9.67;8.30;;;9.10;94.60;;;;;;974644;146;27394;-74
2021/12/18 10:57:52;;;;;;;8.97;8.07;;;9.10;94.60;;;;;;972975;147;27294;-74
2021/12/18 11:00:21;;;;;;;12.67;8.63;;;9.10;94.70;;;;;;958645;149;27753;-74
2021/12/18 11:02:45;;;;;;;8.40;7.57;;;9.10;95.10;;;;;;973991;146;27307;-73
2021/12/18 11:05:17;;;;;;;10.00;8.17;;;9.10;94.70;;;;;;969317;147;27332;-73
2021/12/18 11:07:46;;;;;;;8.37;7.57;;;9.10;94.90;;;;;;965697;147;27386;-74
2021/12/18 11:10:29;;;;;;;7.70;6.90;;;9.10;94.90;;;;;;964447;146;27308;-73
2021/12/18 11:15:31;;;;;;;8.10;7.30;;;9.20;94.90;;;;;;965014;147;27363;-74
2021/12/18 11:17:57;;;;;;;8.37;7.33;;;9.20;94.60;;;;;;967536;147;27286;-74
2021/12/18 11:20:27;;;;;;;7.40;6.70;;;9.20;94.40;;;;;;968260;146;27436;-74
2021/12/18 11:22:53;;;;;;;7.40;6.70;;;9.20;94.30;;;;;;947619;151;27305;-73
2021/12/18 11:25:20;;;;;;;6.83;6.20;;;9.20;94.20;;;;;;927995;151;27789;-74
2021/12/18 11:27:46;;;;;;;6.83;6.13;;;9.20;94.10;;;;;;940181;152;27431;-74
2021/12/18 11:30:13;;;;;;;6.87;6.17;;;9.20;94.20;;;;;;943876;148;27420;-74
2021/12/18 11:32:43;;;;;;;7.10;6.33;;;9.20;94.10;;;;;;944818;150;27380;-73
2021/12/18 11:35:09;;;;;;;7.23;6.53;;;9.20;94.20;;;;;;959833;149;27304;-74
2021/12/18 11:37:36;;;;;;;7.07;6.37;;;9.20;94.30;;;;;;938757;151;27315;-73
2021/12/18 11:40:04;;;;;;;5.50;5.00;;;9.30;94.00;;;;;;941014;151;28023;-74
2021/12/18 11:42:29;;;;;;;6.40;5.73;;;9.30;93.70;;;;;;945077;149;27353;-74
2021/12/18 11:44:58;;;;;;;6.27;5.63;;;9.30;93.60;;;;;;949986;149;27401;-74
2021/12/18 11:47:30;;;;;;;5.30;4.90;;;9.30;93.60;;;;;;960793;149;27692;-74
2021/12/18 11:49:57;;;;;;;5.53;5.03;;;9.30;93.50;;;;;;941572;151;27414;-73
2021/12/18 11:52:23;;;;;;;4.47;4.07;;;9.20;93.40;;;;;;961416;146;27253;-73
2021/12/18 11:54:54;;;;;;;4.70;4.27;;;9.20;93.40;;;;;;939520;150;27330;-73
2021/12/18 11:57:50;;;;;;;4.70;4.30;;;9.20;93.50;;;;;;967146;146;27423;-74
2021/12/18 12:00:16;;;;;;;4.20;3.80;;;9.20;93.60;;;;;;971118;146;27250;-74
2021/12/18 12:02:42;;;;;;;4.70;4.20;;;9.30;93.70;;;;;;973904;144;27292;-73
2021/12/18 12:05:12;;;;;;;4.50;4.10;;;9.30;93.60;;;;;;962240;147;27356;-74
2021/12/18 12:07:38;;;;;;;4.57;4.17;;;9.30;93.40;;;;;;966466;147;27251;-74
2021/12/18 12:10:12;;;;;;;4.27;3.87;;;9.30;93.20;;;;;;966113;147;27269;-74
2021/12/18 12:12:46;;;;;;;3.23;2.93;;;9.30;93.20;;;;;;958296;149;27299;-74
2021/12/18 12:15:13;;;;;;;3.43;3.20;;;9.40;93.00;;;;;;941647;149;27919;-73
2021/12/18 12:17:39;;;;;;;3.93;3.63;;;9.40;92.90;;;;;;941280;152;27333;-73
2021/12/18 12:20:06;;;;;;;3.23;2.93;;;9.40;92.90;;;;;;933656;152;27377;-74
2021/12/18 12:22:33;;;;;;;3.33;3.00;;;9.30;92.70;;;;;;960390;147;27376;-74
2021/12/18 12:24:59;;;;;;;2.77;2.53;;;9.30;92.60;;;;;;975658;146;27402;-73
2021/12/18 12:27:32;;;;;;;2.80;2.60;;;9.30;92.60;;;;;;973196;146;27281;-73
2021/12/18 12:29:58;;;;;;;3.10;2.90;;;9.30;92.70;;;;;;971705;147;27252;-74
2021/12/18 12:32:25;;;;;;;2.87;2.67;;;9.40;92.70;;;;;;977600;145;27245;-73
2021/12/18 12:35:04;;;;;;;4.20;3.80;;;9.40;92.70;;;;;;974658;145;27225;-74
2021/12/18 12:37:30;;;;;;;4.10;3.60;;;9.40;92.80;;;;;;968364;145;27269;-74
2021/12/18 12:39:57;;;;;;;3.27;2.97;;;9.40;92.90;;;;;;971962;147;27286;-74
2021/12/18 12:42:24;;;;;;;3.33;3.03;;;9.40;92.90;;;;;;969587;147;27296;-73
2021/12/18 12:45:02;;;;;;;5.33;3.93;;;9.50;92.90;;;;;;970816;147;27356;-73
2021/12/18 12:47:19;;;;;;;4.23;3.83;;;9.50;92.90;;;;;;975219;145;27230;-74
2021/12/18 12:49:46;;;;;;;4.47;4.07;;;9.60;92.90;;;;;;968364;147;27314;-72
2021/12/18 12:52:13;;;;;;;4.47;4.07;;;9.50;92.80;;;;;;966263;147;27699;-73
2021/12/18 12:55:07;;;;;;;4.53;4.13;;;9.60;92.70;;;;;;963440;147;27839;-73
2021/12/18 12:57:33;;;;;;;4.37;3.97;;;9.60;92.60;;;;;;961732;148;27397;-73
2021/12/18 13:00:08;;;;;;;4.30;3.90;;;9.60;92.50;;;;;;971622;147;27286;-73
2021/12/18 13:02:35;;;;;;;4.70;4.30;;;9.60;92.40;;;;;;960168;149;27384;-75
2021/12/18 13:05:01;;;;;;;5.10;4.60;;;9.70;92.30;;;;;;965630;147;27281;-74
2021/12/18 13:07:28;;;;;;;5.20;4.67;;;9.70;92.30;;;;;;966711;147;27293;-74
2021/12/18 13:09:55;;;;;;;4.37;3.97;;;9.60;92.30;;;;;;968401;147;27282;-74
2021/12/18 13:12:21;;;;;;;4.30;3.90;;;9.60;92.30;;;;;;975185;147;27370;-74
2021/12/18 13:14:48;;;;;;;4.80;4.40;;;9.70;92.20;;;;;;961189;147;27307;-75
2021/12/18 13:17:23;;;;;;;4.60;4.20;;;9.70;92.10;;;;;;962943;147;27256;-74
2021/12/18 13:19:53;;;;;;;5.40;4.90;;;9.70;92.00;;;;;;964780;145;27754;-74
2021/12/18 13:22:22;;;;;;;5.27;4.77;;;9.60;91.90;;;;;;965636;147;27409;-75
2021/12/18 13:24:46;;;;;;;5.30;4.80;;;9.70;91.90;;;;;;970733;147;27317;-74
2021/12/18 13:27:13;;;;;;;6.20;5.60;;;9.60;91.90;;;;;;960565;146;27333;-74
2021/12/18 13:29:39;;;;;;;6.53;5.67;;;9.60;91.90;;;;;;958613;149;27391;-74
2021/12/18 13:32:06;;;;;;;5.67;5.07;;;9.60;91.80;;;;;;957668;147;27336;-74
2021/12/18 13:34:32;;;;;;;5.80;5.20;;;9.60;91.80;;;;;;966985;147;27269;-74
2021/12/18 13:36:59;;;;;;;5.37;4.87;;;9.60;91.80;;;;;;958688;147;27431;-74